aviador You're here:

KAKH Decoded Metar

GASTONIA in NC, USA
Report Time2018-05-28 07:34:00
UTC Time2018-05-28 07:46:10
Flight Rules mvfr MVFR
Wind100° at 03 kt
W.Decomp.*RWY 03: 0.7 kt HW 2.9 kt RCW
W.Rank100° ranks 24
Current wind is below 100° avg. (4.6)
Visibility9999 m
Phenomena:Light Rain
Clouds:Scattered 006 Hf
Broken 018 Hf
Overcast 060 Hf
Expected CloudBase > 400 ft AGL from Temp-Dew spread
Ceiling1,800 ft
Temp22°C (ISA +9)
Dew Point21°C (94% RH)
QNH1015 hPa
Density Alt2,060 ft
Elevation797 ft
Report Wrong Elevation
Raw Report
KAKH 280734Z AUTO 10003KT 9SM -RA SCT006 BKN018 OVC060 22/21 A2998
RMK AO2 P0001 T02170206=

Extra information for KAKH:More info

Metar Taf Metar & Taf Last 4 Metars F.Rules Stats Wind Profile Meteogram Temp Stats Airport Information Weather charts Add Link Nearby VenuesMetar ALERT Operation Metar Decoded Social comments

AIRNAV info for KAKH